createdAt,value
2022-08-22T00:00:16.142Z,8.95
2022-08-22T00:02:49.791Z,6.47
2022-08-22T00:02:54.995Z,7.43
2022-08-22T00:03:28.439Z,11.15
2022-08-22T00:06:48.725Z,7.75
2022-08-22T00:09:48.785Z,12.15
2022-08-22T00:12:59.653Z,8.15
2022-08-22T00:16:00.958Z,8.52
2022-08-22T00:19:03.368Z,8.95
2022-08-22T00:22:02.111Z,7.80
2022-08-22T00:25:25.687Z,6.97
2022-08-22T00:28:28.172Z,9.45
2022-08-22T00:31:21.782Z,9.38
2022-08-22T00:34:22.699Z,11.07
2022-08-22T00:37:24.480Z,8.93
2022-08-22T00:40:33.413Z,10.55
2022-08-22T00:43:48.129Z,6.93
2022-08-22T00:47:04.337Z,6.90
2022-08-22T00:50:20.565Z,11.13
2022-08-22T00:53:26.015Z,12.18
2022-08-22T00:56:31.583Z,8.88
2022-08-22T00:59:42.416Z,10.13
2022-08-22T01:02:51.863Z,7.25
2022-08-22T01:05:49.453Z,11.25
2022-08-22T01:09:04.184Z,11.57
2022-08-22T01:15:11.954Z,8.30
2022-08-22T01:18:20.339Z,10.52
2022-08-22T01:21:48.710Z,9.18
2022-08-22T01:25:18.388Z,11.30
2022-08-22T01:28:42.567Z,9.30
2022-08-22T01:32:09.997Z,9.05
2022-08-22T01:35:24.146Z,10.93
2022-08-22T01:38:59.043Z,9.27
2022-08-22T01:42:20.226Z,10.90
2022-08-22T01:45:32.559Z,7.78
2022-08-22T01:48:38.804Z,10.30
2022-08-22T01:51:44.805Z,9.43
2022-08-22T01:54:51.052Z,11.82
2022-08-22T01:57:57.446Z,8.68
2022-08-22T02:00:57.027Z,14.10
2022-08-22T02:04:09.646Z,11.60
2022-08-22T02:07:11.574Z,10.20
2022-08-22T02:10:39.124Z,9.82
2022-08-22T02:13:54.632Z,13.23
2022-08-22T02:16:50.710Z,11.93
2022-08-22T02:19:49.986Z,11.18
2022-08-22T02:22:57.522Z,10.00
2022-08-22T02:26:02.568Z,10.85
2022-08-22T02:29:04.694Z,9.80
2022-08-22T02:32:09.218Z,8.70
2022-08-22T02:38:13.827Z,13.73
2022-08-22T02:41:12.551Z,11.50
2022-08-22T02:44:18.797Z,12.48
2022-08-22T02:47:10.703Z,12.40
2022-08-22T02:50:12.700Z,13.38
2022-08-22T02:53:21.836Z,12.18
2022-08-22T02:56:22.304Z,15.60
2022-08-22T02:59:27.256Z,10.68
2022-08-22T03:02:32.263Z,10.40
2022-08-22T03:05:46.373Z,9.48
2022-08-22T03:08:42.917Z,11.20
2022-08-22T03:11:45.671Z,11.75
2022-08-22T03:14:44.624Z,8.73
2022-08-22T03:17:48.183Z,10.48
2022-08-22T03:20:46.718Z,11.55
2022-08-22T03:23:40.789Z,11.38
2022-08-22T03:26:58.020Z,10.15
2022-08-22T03:29:54.946Z,10.50
2022-08-22T03:33:18.600Z,8.05
2022-08-22T03:36:18.092Z,8.93
2022-08-22T03:39:17.806Z,9.73
2022-08-22T03:42:27.047Z,9.90
2022-08-22T03:45:55.599Z,9.57
2022-08-22T03:49:07.126Z,8.95
2022-08-22T03:52:24.309Z,9.60
2022-08-22T03:55:36.792Z,9.18
2022-08-22T03:59:01.575Z,13.43
2022-08-22T04:02:42.094Z,10.98
2022-08-22T04:06:42.765Z,9.57
2022-08-22T04:09:59.053Z,11.95
2022-08-22T04:13:11.159Z,8.10
2022-08-22T04:16:29.902Z,9.55
2022-08-22T04:19:32.467Z,13.18
2022-08-22T04:22:47.849Z,15.60
2022-08-22T04:28:37.671Z,10.35
2022-08-22T04:31:34.568Z,12.43
2022-08-22T04:34:34.317Z,12.48
2022-08-22T04:37:36.161Z,14.60
2022-08-22T04:40:43.460Z,10.00
2022-08-22T04:43:47.485Z,14.18
2022-08-22T04:46:45.610Z,9.80
2022-08-22T04:49:43.420Z,15.13
2022-08-22T04:52:48.904Z,15.18
2022-08-22T04:55:56.463Z,8.82
2022-08-22T04:58:58.314Z,17.65
2022-08-22T05:02:05.989Z,12.30
2022-08-22T05:05:04.283Z,12.85
2022-08-22T05:07:59.605Z,11.50
2022-08-22T05:10:52.456Z,14.27
2022-08-22T05:13:48.684Z,14.98
2022-08-22T05:16:41.921Z,15.90
2022-08-22T05:19:37.440Z,14.02
2022-08-22T05:22:36.563Z,10.75
2022-08-22T05:25:31.215Z,14.00
2022-08-22T05:28:33.972Z,13.70
2022-08-22T05:31:29.357Z,13.77
2022-08-22T05:34:23.950Z,13.85
2022-08-22T05:37:20.511Z,11.63
2022-08-22T05:40:20.819Z,16.02
2022-08-22T05:43:12.609Z,18.08
2022-08-22T05:46:07.822Z,12.43
2022-08-22T05:49:00.477Z,14.77
2022-08-22T05:52:19.503Z,15.32
2022-08-22T05:55:27.802Z,17.90
2022-08-22T05:58:37.866Z,10.48
2022-08-22T06:01:46.415Z,18.35
2022-08-22T06:04:45.805Z,16.13
2022-08-22T06:07:48.424Z,17.67
2022-08-22T06:10:48.097Z,14.43
2022-08-22T06:13:42.295Z,11.23
2022-08-22T06:16:49.146Z,13.93
2022-08-22T06:19:44.071Z,16.73
2022-08-22T06:22:38.308Z,13.15
2022-08-22T06:25:33.482Z,23.77
2022-08-22T06:28:27.711Z,11.93
2022-08-22T06:31:22.264Z,12.10
2022-08-22T06:34:15.947Z,10.73
2022-08-22T06:37:11.399Z,9.18
2022-08-22T06:40:04.899Z,16.88
2022-08-22T06:42:57.143Z,17.75
2022-08-22T06:45:48.643Z,15.70
2022-08-22T06:48:38.957Z,9.88
2022-08-22T06:51:29.854Z,10.93
2022-08-22T06:54:25.148Z,16.70
2022-08-22T06:57:30.253Z,11.10
2022-08-22T07:00:20.501Z,11.40
2022-08-22T07:03:20.361Z,14.85
2022-08-22T07:06:29.744Z,11.15
2022-08-22T07:09:28.569Z,11.52
2022-08-22T07:12:21.594Z,11.15
2022-08-22T07:15:20.680Z,12.93
2022-08-22T07:18:24.733Z,14.88
2022-08-22T07:21:25.272Z,9.85
2022-08-22T07:24:24.628Z,9.70
2022-08-22T07:27:42.502Z,9.95
2022-08-22T07:30:54.394Z,11.98
2022-08-22T07:33:49.265Z,9.27
2022-08-22T07:39:59.260Z,8.20
2022-08-22T07:43:13.373Z,12.07
2022-08-22T07:46:35.115Z,14.90
2022-08-22T07:49:37.260Z,9.20
2022-08-22T07:52:44.731Z,7.60
2022-08-22T07:55:41.066Z,12.15
2022-08-22T07:58:42.987Z,7.38
2022-08-22T08:01:34.249Z,7.97
2022-08-22T08:04:30.747Z,7.93
2022-08-22T08:07:28.141Z,9.30
2022-08-22T08:10:34.542Z,8.95
2022-08-22T08:13:33.923Z,8.23
2022-08-22T08:16:30.908Z,7.57
2022-08-22T08:19:22.582Z,9.25
2022-08-22T08:22:18.426Z,7.57
2022-08-22T08:25:12.888Z,10.35
2022-08-22T08:28:23.903Z,6.60
2022-08-22T08:31:27.440Z,8.13
2022-08-22T08:34:22.457Z,8.73
2022-08-22T08:37:23.169Z,5.97
2022-08-22T08:40:27.998Z,6.82
2022-08-22T08:43:53.033Z,5.57
2022-08-22T08:47:00.069Z,4.75
2022-08-22T08:50:11.680Z,7.45
2022-08-22T08:53:41.195Z,8.77
2022-08-22T08:56:57.970Z,6.72
2022-08-22T09:00:14.240Z,5.70
2022-08-22T09:03:12.008Z,6.80
2022-08-22T09:06:33.613Z,5.70
2022-08-22T09:09:45.521Z,6.47
2022-08-22T09:12:59.780Z,5.95
2022-08-22T09:16:10.299Z,6.70
2022-08-22T09:19:24.469Z,6.78
2022-08-22T09:22:50.605Z,5.90
2022-08-22T09:25:50.446Z,5.70
2022-08-22T09:29:18.279Z,8.73
2022-08-22T09:32:19.043Z,3.72
2022-08-22T09:35:20.680Z,3.53
2022-08-22T09:38:41.214Z,4.38
2022-08-22T09:41:53.462Z,4.65
2022-08-22T09:45:06.755Z,6.15
2022-08-22T09:48:13.447Z,3.67
2022-08-22T09:51:33.196Z,3.58
2022-08-22T09:54:31.781Z,4.72
2022-08-22T09:57:33.820Z,4.47
2022-08-22T10:00:32.408Z,4.00
2022-08-22T10:03:51.784Z,3.85
2022-08-22T10:07:11.755Z,5.70
2022-08-22T10:10:27.168Z,6.35
2022-08-22T10:13:41.869Z,4.80
2022-08-22T10:16:44.178Z,4.72
2022-08-22T10:19:42.893Z,4.78
2022-08-22T10:22:40.242Z,5.57
2022-08-22T10:26:22.581Z,4.05
2022-08-22T10:29:37.936Z,3.38
2022-08-22T10:32:37.636Z,4.68
2022-08-22T10:35:33.982Z,3.67
2022-08-22T10:38:32.315Z,3.65
2022-08-22T10:41:28.778Z,4.38
2022-08-22T10:44:24.394Z,3.92
2022-08-22T10:47:23.984Z,3.42
2022-08-22T10:50:35.429Z,5.47
2022-08-22T10:53:34.872Z,3.33
2022-08-22T10:56:43.846Z,5.10
2022-08-22T10:59:46.857Z,4.47
2022-08-22T11:02:53.091Z,3.22
2022-08-22T11:05:50.264Z,5.25
2022-08-22T11:09:19.827Z,5.53
2022-08-22T11:12:34.813Z,4.05
2022-08-22T11:16:13.013Z,4.10
2022-08-22T11:19:33.084Z,4.45
2022-08-22T11:22:41.388Z,5.88
2022-08-22T11:25:53.737Z,4.15
2022-08-22T11:29:14.042Z,6.45
2022-08-22T11:32:16.959Z,4.47
2022-08-22T11:35:21.810Z,5.17
2022-08-22T11:38:36.270Z,4.18
2022-08-22T11:41:54.247Z,4.80
2022-08-22T11:45:00.366Z,4.28
2022-08-22T11:48:02.502Z,4.13
2022-08-22T11:51:13.107Z,3.00
2022-08-22T11:54:21.396Z,5.15
2022-08-22T11:57:36.212Z,3.13
2022-08-22T12:00:57.386Z,3.15
2022-08-22T12:04:09.919Z,5.03
2022-08-22T12:07:12.358Z,4.50
2022-08-22T12:10:28.355Z,3.85
2022-08-22T12:13:40.273Z,3.53
2022-08-22T12:16:50.906Z,3.20
2022-08-22T12:20:32.490Z,4.00
2022-08-22T12:23:48.514Z,5.70
2022-08-22T12:27:12.799Z,5.57
2022-08-22T12:30:45.982Z,4.82
2022-08-22T12:34:13.997Z,7.13
2022-08-22T12:37:29.865Z,4.30
2022-08-22T12:40:27.265Z,3.17
2022-08-22T12:43:42.716Z,4.45
2022-08-22T12:47:00.336Z,3.78
2022-08-22T12:50:13.461Z,6.65
2022-08-22T12:53:53.666Z,3.20
2022-08-22T12:56:47.458Z,4.55
2022-08-22T12:59:44.029Z,7.13
2022-08-22T13:02:39.415Z,3.38
2022-08-22T13:05:34.196Z,3.45
2022-08-22T13:08:43.484Z,4.13
2022-08-22T13:11:38.234Z,4.82
2022-08-22T13:14:31.896Z,6.05
2022-08-22T13:17:25.258Z,4.47
2022-08-22T13:23:30.433Z,3.53
2022-08-22T13:26:31.796Z,5.47
2022-08-22T13:29:42.690Z,4.68
2022-08-22T13:32:44.475Z,3.78
2022-08-22T13:35:56.499Z,5.13
2022-08-22T13:39:09.557Z,3.50
2022-08-22T13:42:14.289Z,4.00
2022-08-22T13:45:14.078Z,4.55
2022-08-22T13:48:28.523Z,4.75
2022-08-22T13:54:16.389Z,3.92
2022-08-22T13:57:31.219Z,4.38
2022-08-22T14:01:03.731Z,5.60
2022-08-22T14:04:28.619Z,2.92
2022-08-22T14:08:01.594Z,4.80
2022-08-22T14:10:55.638Z,4.05
2022-08-22T14:14:01.119Z,3.95
2022-08-22T14:16:53.969Z,4.07
2022-08-22T14:19:59.485Z,3.92
2022-08-22T14:23:24.088Z,5.40
2022-08-22T14:26:33.106Z,4.93
2022-08-22T14:29:34.705Z,3.90
2022-08-22T14:32:42.075Z,7.32
2022-08-22T14:35:52.872Z,4.78
2022-08-22T14:38:53.333Z,5.25
2022-08-22T14:41:58.651Z,3.67
2022-08-22T14:45:08.672Z,5.22
2022-08-22T14:48:30.850Z,2.72
2022-08-22T14:51:25.692Z,4.10
2022-08-22T14:54:21.589Z,6.43
2022-08-22T14:57:19.918Z,4.07
2022-08-22T15:00:12.538Z,5.65
2022-08-22T15:03:10.726Z,6.53
2022-08-22T15:06:12.430Z,7.72
2022-08-22T15:09:26.631Z,3.78
2022-08-22T15:12:39.318Z,4.32
2022-08-22T15:15:49.376Z,3.38
2022-08-22T15:18:51.592Z,6.40
2022-08-22T15:21:42.605Z,3.92
2022-08-22T15:24:33.265Z,4.60
2022-08-22T15:27:25.629Z,4.05
2022-08-22T15:30:32.904Z,2.47
2022-08-22T15:33:27.125Z,7.50
2022-08-22T15:36:25.845Z,7.88
2022-08-22T15:39:38.084Z,5.72
2022-08-22T15:42:32.587Z,4.65
2022-08-22T15:45:36.209Z,3.78
2022-08-22T15:52:00.819Z,3.33
2022-08-22T15:54:54.551Z,3.80
2022-08-22T15:58:00.195Z,3.10
2022-08-22T16:01:34.830Z,3.35
2022-08-22T16:04:36.579Z,5.57
2022-08-22T16:07:32.735Z,5.93
2022-08-22T16:10:23.075Z,6.03
2022-08-22T16:13:35.525Z,3.00
2022-08-22T16:16:49.967Z,4.35
2022-08-22T16:19:39.756Z,4.35
2022-08-22T16:22:57.870Z,3.80
2022-08-22T16:25:47.807Z,3.65
2022-08-22T16:29:00.242Z,4.78
2022-08-22T16:31:52.816Z,7.13
2022-08-22T16:34:45.779Z,7.93
2022-08-22T16:37:47.997Z,5.45
2022-08-22T16:40:47.201Z,6.32
2022-08-22T16:43:37.422Z,2.92
2022-08-22T16:46:45.587Z,3.00
2022-08-22T16:49:53.340Z,5.25
2022-08-22T16:53:04.645Z,6.70
2022-08-22T16:56:14.842Z,12.07
2022-08-22T16:59:23.548Z,4.25
2022-08-22T17:02:36.396Z,8.25
2022-08-22T17:05:39.037Z,2.83
2022-08-22T17:08:50.417Z,3.72
2022-08-22T17:11:53.394Z,3.42
2022-08-22T17:15:14.897Z,4.97
2022-08-22T17:18:42.924Z,4.05
2022-08-22T17:21:50.645Z,3.65
2022-08-22T17:24:59.865Z,5.15
2022-08-22T17:28:03.216Z,2.88
2022-08-22T17:31:25.258Z,5.60
2022-08-22T17:34:38.339Z,5.35
2022-08-22T17:37:45.791Z,6.55
2022-08-22T17:40:45.413Z,3.90
2022-08-22T17:43:57.074Z,7.55
2022-08-22T17:46:54.132Z,3.70
2022-08-22T17:50:09.301Z,5.47
2022-08-22T17:53:05.472Z,2.75
2022-08-22T17:56:05.074Z,4.28
2022-08-22T17:59:05.806Z,3.33
2022-08-22T18:01:59.720Z,2.20
2022-08-22T18:05:12.705Z,6.30
2022-08-22T18:08:37.584Z,4.72
2022-08-22T18:11:40.081Z,3.22
2022-08-22T18:14:49.105Z,3.60
2022-08-22T18:17:59.427Z,4.45
2022-08-22T18:21:34.144Z,4.07
2022-08-22T18:27:44.235Z,6.43
2022-08-22T18:30:49.051Z,4.15
2022-08-22T18:36:49.675Z,3.30
2022-08-22T18:40:01.045Z,4.03
2022-08-22T18:43:17.925Z,8.35
2022-08-22T18:46:31.676Z,4.05
2022-08-22T18:49:21.950Z,5.75
2022-08-22T18:52:16.993Z,4.93
2022-08-22T18:55:45.449Z,5.53
2022-08-22T18:58:47.918Z,4.20
2022-08-22T19:02:00.303Z,3.83
2022-08-22T19:05:26.081Z,5.15
2022-08-22T19:08:51.663Z,4.78
2022-08-22T19:12:14.392Z,3.85
2022-08-22T19:15:13.655Z,4.95
2022-08-22T19:18:06.924Z,5.72
2022-08-22T19:21:45.538Z,4.90
2022-08-22T19:25:04.379Z,6.63
2022-08-22T19:28:06.810Z,4.47
2022-08-22T19:31:22.408Z,3.20
2022-08-22T19:34:15.432Z,4.55
2022-08-22T19:37:32.390Z,4.40
2022-08-22T19:40:45.860Z,3.47
2022-08-22T19:43:40.391Z,6.97
2022-08-22T19:46:40.027Z,4.80
2022-08-22T19:49:36.234Z,4.00
2022-08-22T19:52:38.319Z,3.50
2022-08-22T19:55:37.520Z,6.10
2022-08-22T19:58:41.076Z,4.45
2022-08-22T20:01:49.801Z,4.30
2022-08-22T20:04:45.715Z,9.95
2022-08-22T20:07:58.390Z,10.52
2022-08-22T20:11:04.006Z,7.13
2022-08-22T20:14:10.980Z,5.30
2022-08-22T20:17:24.529Z,5.82
2022-08-22T20:20:30.510Z,5.82
2022-08-22T20:23:30.579Z,3.25
2022-08-22T20:26:21.943Z,5.35
2022-08-22T20:29:12.052Z,4.82
2022-08-22T20:32:04.309Z,5.93
2022-08-22T20:35:00.620Z,4.07
2022-08-22T20:38:06.742Z,6.70
2022-08-22T20:41:22.591Z,3.95
2022-08-22T20:44:15.866Z,3.20
2022-08-22T20:47:13.321Z,3.83
2022-08-22T20:50:11.864Z,8.15
2022-08-22T20:53:16.861Z,6.93
2022-08-22T20:56:09.535Z,4.30
2022-08-22T20:59:01.357Z,5.75
2022-08-22T21:02:33.357Z,3.05
2022-08-22T21:05:32.071Z,5.50
2022-08-22T21:08:26.632Z,4.20
2022-08-22T21:11:40.425Z,3.08
2022-08-22T21:14:37.507Z,2.22
2022-08-22T21:17:34.331Z,9.57
2022-08-22T21:20:31.905Z,4.28
2022-08-22T21:23:22.151Z,4.50
2022-08-22T21:26:22.311Z,6.05
2022-08-22T21:29:12.225Z,4.38
2022-08-22T21:32:24.563Z,5.30
2022-08-22T21:35:33.422Z,4.10
2022-08-22T21:38:23.544Z,5.00
2022-08-22T21:41:17.554Z,3.47
2022-08-22T21:44:28.370Z,6.28
2022-08-22T21:47:30.766Z,4.72
2022-08-22T21:50:23.246Z,4.82
2022-08-22T21:53:30.376Z,5.40
2022-08-22T21:56:28.788Z,4.57
2022-08-22T21:59:50.729Z,3.72
2022-08-22T22:02:41.433Z,5.30
2022-08-22T22:05:31.797Z,4.47
2022-08-22T22:08:22.368Z,6.55
2022-08-22T22:11:14.515Z,5.72
2022-08-22T22:14:05.050Z,5.30
2022-08-22T22:16:55.127Z,7.50
2022-08-22T22:19:45.832Z,6.15
2022-08-22T22:22:37.075Z,5.88
2022-08-22T22:25:42.236Z,7.18
2022-08-22T22:28:36.678Z,6.30
2022-08-22T22:34:17.582Z,5.00
2022-08-22T22:37:09.092Z,5.80
2022-08-22T22:40:07.041Z,6.07
2022-08-22T22:42:57.697Z,6.40
2022-08-22T22:45:48.024Z,15.93
2022-08-22T22:48:38.533Z,5.03
2022-08-22T22:51:28.413Z,4.63
2022-08-22T22:54:18.994Z,6.05
2022-08-22T22:57:25.414Z,2.90
2022-08-22T23:00:16.514Z,5.40
2022-08-22T23:03:06.854Z,5.60
2022-08-22T23:05:57.740Z,8.25
2022-08-22T23:08:48.452Z,4.70
2022-08-22T23:11:38.813Z,5.10
2022-08-22T23:14:30.725Z,5.10
2022-08-22T23:17:20.920Z,7.10
2022-08-22T23:20:11.344Z,5.85
2022-08-22T23:23:01.545Z,4.93
2022-08-22T23:25:51.737Z,5.65
2022-08-22T23:28:41.722Z,3.60
2022-08-22T23:31:36.249Z,4.70
2022-08-22T23:34:33.391Z,4.93
2022-08-22T23:37:23.777Z,4.55
2022-08-22T23:40:14.159Z,4.82
2022-08-22T23:43:04.382Z,3.90
2022-08-22T23:45:54.811Z,6.03
2022-08-22T23:48:45.360Z,3.38
2022-08-22T23:51:35.729Z,8.00
2022-08-22T23:54:26.091Z,4.38
2022-08-22T23:57:16.331Z,4.57
